Time;durP1;ratioP1;P1;durP2;ratioP2;P2;SDS_P1;SDS_P2;PMS_P1;PMS_P2;Temp;Humidity;BMP_temperature;BMP_pressure;BME280_temperature;BME280_humidity;BME280_pressure;Samples;Min_cycle;Max_cycle;Signal;HPM_P1;HPM_P2
2020/12/13 00:00:14;;;;;;;7.60;6.55;;;;;;;2.87;100.00;94970.09;1052382;28;20595;-70
2020/12/13 00:00:44;;;;;;;6.68;6.07;;;;;;;2.80;100.00;94968.63;1051874;28;20016;-69
2020/12/13 00:01:15;;;;;;;6.50;5.90;;;;;;;2.83;100.00;94974.19;1052051;28;20533;-69
2020/12/13 00:01:45;;;;;;;7.07;6.38;;;;;;;2.82;100.00;94971.78;1051826;28;20055;-69
2020/12/13 00:02:16;;;;;;;7.47;6.78;;;;;;;2.81;100.00;94970.19;1051963;28;20039;-70
2020/12/13 00:02:46;;;;;;;6.72;6.10;;;;;;;2.81;100.00;94967.59;1052258;28;20027;-69
2020/12/13 00:03:16;;;;;;;7.28;5.97;;;;;;;2.85;100.00;94973.97;1052387;28;20472;-69
2020/12/13 00:03:47;;;;;;;8.18;6.72;;;;;;;2.87;100.00;94972.72;1052153;28;20056;-69
2020/12/13 00:04:17;;;;;;;6.88;6.28;;;;;;;2.81;100.00;94973.63;1052256;28;20037;-70
2020/12/13 00:04:48;;;;;;;7.43;6.82;;;;;;;2.84;100.00;94969.75;1052258;28;20416;-69
2020/12/13 00:05:18;;;;;;;6.78;6.18;;;;;;;2.84;100.00;94975.78;1052362;28;20499;-69
2020/12/13 00:05:50;;;;;;;7.43;6.72;;;;;;;2.87;100.00;94977.94;1052068;28;20027;-69
2020/12/13 00:06:21;;;;;;;6.82;6.22;;;;;;;2.90;100.00;94977.50;1052316;28;20026;-70
2020/12/13 00:06:51;;;;;;;6.70;6.10;;;;;;;2.89;100.00;94982.94;1052295;28;20341;-69
2020/12/13 00:07:21;;;;;;;7.22;6.60;;;;;;;2.91;100.00;94980.91;1052332;28;20016;-69
2020/12/13 00:07:55;;;;;;;6.35;5.75;;;;;;;2.91;100.00;94979.09;1052297;28;20385;-69
2020/12/13 00:08:26;;;;;;;6.53;5.93;;;;;;;2.94;100.00;94983.84;1052305;28;20469;-69
2020/12/13 00:08:57;;;;;;;6.85;6.25;;;;;;;2.92;100.00;94985.13;1052362;28;20115;-69
2020/12/13 00:09:27;;;;;;;6.43;5.82;;;;;;;2.89;100.00;94973.28;1052336;28;20066;-69
2020/12/13 00:09:58;;;;;;;6.43;5.90;;;;;;;2.90;100.00;94984.53;1052250;28;20434;-69
2020/12/13 00:10:28;;;;;;;6.45;5.85;;;;;;;2.90;100.00;94977.50;1051877;28;20499;-69
2020/12/13 00:10:58;;;;;;;6.97;6.38;;;;;;;2.90;100.00;94990.56;1052030;28;20106;-69
2020/12/13 00:11:29;;;;;;;6.35;5.75;;;;;;;2.92;100.00;94985.13;1052088;28;20016;-69
2020/12/13 00:12:03;;;;;;;6.88;6.28;;;;;;;2.91;100.00;94986.13;1051889;28;20020;-70
2020/12/13 00:12:36;;;;;;;5.88;5.28;;;;;;;2.92;100.00;94975.44;1050042;28;20033;-70
2020/12/13 00:13:06;;;;;;;6.03;5.53;;;;;;;2.95;100.00;94982.03;1051901;28;20417;-69
2020/12/13 00:13:36;;;;;;;6.35;5.75;;;;;;;2.94;100.00;94983.84;1052002;28;20028;-69
2020/12/13 00:14:07;;;;;;;6.10;5.60;;;;;;;2.96;100.00;94978.41;1051630;28;20028;-70
2020/12/13 00:14:37;;;;;;;6.13;5.53;;;;;;;2.98;100.00;94978.19;1051951;28;20024;-70
2020/12/13 00:15:08;;;;;;;6.30;5.72;;;;;;;3.00;100.00;94994.44;1052263;28;20019;-69
2020/12/13 00:15:39;;;;;;;6.43;5.82;;;;;;;2.94;100.00;94983.84;1052336;28;20028;-68
2020/12/13 00:16:11;;;;;;;6.97;6.20;;;;;;;2.94;100.00;94980.44;1052148;28;20020;-69
2020/12/13 00:16:41;;;;;;;6.28;5.63;;;;;;;2.96;100.00;94986.28;1052297;28;20483;-68
2020/12/13 00:17:11;;;;;;;6.82;6.22;;;;;;;2.91;100.00;94983.53;1050698;28;20027;-70
2020/12/13 00:17:42;;;;;;;6.38;5.78;;;;;;;2.92;100.00;94991.13;1049557;28;20043;-69
2020/12/13 00:18:12;;;;;;;6.72;6.05;;;;;;;2.91;100.00;94984.31;1050758;28;20366;-68
2020/12/13 00:18:43;;;;;;;6.60;6.00;;;;;;;2.92;100.00;94991.13;1052098;28;20020;-69
2020/12/13 00:19:13;;;;;;;6.28;5.68;;;;;;;2.90;100.00;94993.19;1052226;28;20119;-69
2020/12/13 00:19:44;;;;;;;6.25;5.75;;;;;;;2.88;100.00;94986.59;1051898;28;20028;-69
2020/12/13 00:20:15;;;;;;;5.85;5.35;;;;;;;2.91;100.00;94989.56;1047562;28;20036;-69
2020/12/13 00:20:45;;;;;;;6.05;5.55;;;;;;;2.90;100.00;94987.97;1047679;28;20032;-69
2020/12/13 00:21:15;;;;;;;6.38;5.82;;;;;;;2.91;100.00;94989.56;1047891;28;20028;-68
2020/12/13 00:21:50;;;;;;;6.53;5.97;;;;;;;2.92;100.00;94995.56;1051851;28;20385;-69
2020/12/13 00:22:20;;;;;;;6.20;5.63;;;;;;;2.89;100.00;94991.59;1052071;28;20055;-68
2020/12/13 00:22:51;;;;;;;5.88;5.38;;;;;;;2.90;100.00;94993.19;1052256;28;20468;-69
2020/12/13 00:23:21;;;;;;;6.00;5.50;;;;;;;2.89;100.00;94991.59;1051885;28;20028;-68
2020/12/13 00:23:53;;;;;;;7.00;6.30;;;;;;;2.90;100.00;94993.19;1052118;28;20028;-69
2020/12/13 00:24:23;;;;;;;6.57;5.97;;;;;;;2.91;100.00;94992.16;1052064;28;20024;-69
2020/12/13 00:24:54;;;;;;;6.35;5.80;;;;;;;2.89;100.00;94996.03;1052186;28;20460;-68
2020/12/13 00:25:24;;;;;;;6.35;5.53;;;;;;;2.88;100.00;94999.69;1052253;28;20036;-69
2020/12/13 00:25:55;;;;;;;6.10;5.60;;;;;;;2.89;100.00;94990.81;1052275;28;20085;-68
2020/12/13 00:26:25;;;;;;;6.13;5.55;;;;;;;2.90;100.00;94998.44;1052144;28;20020;-69
2020/12/13 00:26:55;;;;;;;5.55;5.05;;;;;;;2.89;100.00;94994.22;1052233;28;20020;-68
2020/12/13 00:27:26;;;;;;;6.13;5.63;;;;;;;2.88;100.00;95000.47;1052189;28;20077;-69
2020/12/13 00:27:56;;;;;;;5.35;4.85;;;;;;;2.91;100.00;94999.22;1052155;28;20073;-68
2020/12/13 00:28:27;;;;;;;6.05;5.55;;;;;;;2.91;100.00;95000.00;1052221;28;20085;-69
2020/12/13 00:28:57;;;;;;;6.13;5.53;;;;;;;2.82;100.00;94996.13;1052150;28;20016;-68
2020/12/13 00:29:27;;;;;;;5.95;5.45;;;;;;;2.86;100.00;94994.69;1052151;28;20032;-69
2020/12/13 00:29:58;;;;;;;6.32;5.78;;;;;;;2.89;100.00;95007.31;1052007;28;20027;-68
2020/12/13 00:30:28;;;;;;;6.03;5.53;;;;;;;2.91;100.00;95007.06;1052165;28;20321;-68
2020/12/13 00:30:59;;;;;;;5.68;5.18;;;;;;;2.90;100.00;94995.00;1051919;28;20469;-68
2020/12/13 00:31:29;;;;;;;5.68;5.18;;;;;;;2.90;100.00;95005.47;1052236;28;20028;-69
2020/12/13 00:31:59;;;;;;;5.63;5.18;;;;;;;2.89;100.00;94999.44;1052201;28;20500;-69
2020/12/13 00:32:30;;;;;;;6.00;5.50;;;;;;;2.88;100.00;95005.72;1052514;28;20027;-69
2020/12/13 00:33:00;;;;;;;5.78;5.28;;;;;;;2.86;100.00;94992.06;1052447;28;20024;-69
2020/12/13 00:33:31;;;;;;;5.90;5.40;;;;;;;2.90;100.00;95002.88;1052684;28;20024;-69
2020/12/13 00:34:02;;;;;;;6.68;6.07;;;;;;;2.89;100.00;95009.13;1052415;28;20028;-69
2020/12/13 00:34:33;;;;;;;6.00;5.50;;;;;;;2.90;100.00;95003.66;1052325;28;20023;-69
2020/12/13 00:35:03;;;;;;;5.97;5.47;;;;;;;2.84;100.00;95004.59;1052316;28;20016;-69
2020/12/13 00:35:34;;;;;;;6.80;6.20;;;;;;;2.85;100.00;95000.94;1052500;28;20023;-69
2020/12/13 00:36:04;;;;;;;5.78;5.28;;;;;;;2.88;100.00;95002.31;1051976;28;20020;-69
2020/12/13 00:36:35;;;;;;;7.22;5.38;;;;;;;2.88;100.00;95002.31;1052204;28;20012;-68
2020/12/13 00:37:05;;;;;;;6.55;5.78;;;;;;;2.85;100.00;95000.94;1049471;28;20475;-69
2020/12/13 00:37:36;;;;;;;5.95;5.45;;;;;;;2.89;100.00;95004.69;1049308;28;20123;-69
2020/12/13 00:38:07;;;;;;;7.10;6.40;;;;;;;2.90;100.00;95010.72;1052339;28;20065;-68
2020/12/13 00:38:38;;;;;;;6.30;5.70;;;;;;;2.89;100.00;95009.91;1052074;28;20150;-68
2020/12/13 00:39:08;;;;;;;6.45;5.85;;;;;;;2.86;100.00;95006.97;1052034;28;20027;-68
2020/12/13 00:39:38;;;;;;;7.10;6.10;;;;;;;2.81;100.00;95006.84;1052060;28;20060;-69
2020/12/13 00:40:09;;;;;;;7.65;6.85;;;;;;;2.76;100.00;95007.53;1047874;28;20016;-68
2020/12/13 00:40:39;;;;;;;6.90;6.30;;;;;;;2.79;100.00;95009.69;1047960;28;20024;-68
2020/12/13 00:41:10;;;;;;;6.35;5.75;;;;;;;2.80;100.00;95008.66;1048315;28;20025;-68
2020/12/13 00:41:40;;;;;;;6.32;5.72;;;;;;;2.84;100.00;95004.59;1046113;28;20092;-68
2020/12/13 00:42:11;;;;;;;5.88;5.38;;;;;;;2.83;100.00;94999.56;1052860;28;20024;-68
2020/12/13 00:42:41;;;;;;;6.75;6.07;;;;;;;2.82;100.00;95005.81;1053307;28;20027;-68
2020/12/13 00:43:12;;;;;;;5.45;5.05;;;;;;;2.84;100.00;95014.22;1053054;28;20035;-68
2020/12/13 00:43:42;;;;;;;5.53;5.03;;;;;;;2.87;100.00;95011.97;1053246;28;20023;-68
2020/12/13 00:44:12;;;;;;;6.32;5.60;;;;;;;2.89;100.00;95011.75;1053160;28;20016;-68
2020/12/13 00:44:43;;;;;;;5.93;5.40;;;;;;;2.87;100.00;95019.81;1053253;28;20012;-68
2020/12/13 00:45:13;;;;;;;6.30;5.80;;;;;;;2.83;100.00;95008.19;1052835;28;20376;-68
2020/12/13 00:45:44;;;;;;;6.57;6.07;;;;;;;2.85;100.00;95014.03;1052823;28;20453;-68
2020/12/13 00:46:14;;;;;;;6.90;6.20;;;;;;;2.83;100.00;95010.03;1052550;28;20012;-68
2020/12/13 00:46:45;;;;;;;5.75;5.25;;;;;;;2.87;100.00;95014.59;1048533;28;20032;-69
2020/12/13 00:47:16;;;;;;;6.63;6.03;;;;;;;2.85;100.00;95011.41;1052815;28;20024;-69
2020/12/13 00:47:46;;;;;;;6.00;5.50;;;;;;;2.88;100.00;95015.38;1052866;28;20089;-69
2020/12/13 00:48:16;;;;;;;6.22;5.72;;;;;;;2.83;100.00;95007.41;1052861;28;20558;-69
2020/12/13 00:48:50;;;;;;;6.40;5.90;;;;;;;2.76;100.00;95011.97;1053248;28;20418;-69
2020/12/13 00:49:20;;;;;;;6.28;5.78;;;;;;;2.78;100.00;95015.94;1050400;28;20108;-69
2020/12/13 00:49:51;;;;;;;6.57;5.95;;;;;;;2.80;100.00;95019.13;1053176;28;20047;-69
2020/12/13 00:50:21;;;;;;;6.63;6.05;;;;;;;2.82;100.00;95019.69;1053185;28;20023;-69
2020/12/13 00:50:52;;;;;;;6.53;5.93;;;;;;;2.79;100.00;95020.16;1052902;28;20015;-69
2020/12/13 00:51:25;;;;;;;5.85;5.35;;;;;;;2.81;100.00;95015.47;1052866;28;20016;-69
2020/12/13 00:52:02;;;;;;;6.63;5.93;;;;;;;2.86;100.00;95014.81;1053004;28;20015;-69
2020/12/13 00:52:33;;;;;;;5.57;5.07;;;;;;;2.86;100.00;95023.47;1050331;28;20005;-69
2020/12/13 00:53:04;;;;;;;6.40;5.80;;;;;;;2.87;100.00;95019.03;1052996;28;20031;-69
2020/12/13 00:53:35;;;;;;;6.22;5.72;;;;;;;2.88;100.00;95026.66;1052737;28;20012;-69
2020/12/13 00:54:05;;;;;;;5.47;4.97;;;;;;;2.87;100.00;95011.97;1052461;28;20036;-69
2020/12/13 00:54:36;;;;;;;6.05;5.55;;;;;;;2.88;100.00;95020.63;1052938;28;20036;-69
2020/12/13 00:55:06;;;;;;;5.93;5.43;;;;;;;2.87;100.00;95019.81;1052961;28;20020;-69
2020/12/13 00:55:36;;;;;;;5.75;5.20;;;;;;;2.91;100.00;95020.94;1053030;28;20477;-67
2020/12/13 00:56:07;;;;;;;6.18;5.68;;;;;;;2.85;100.00;95021.88;1052919;28;20016;-67
2020/12/13 00:56:37;;;;;;;6.22;5.72;;;;;;;2.86;100.00;95018.22;1052874;28;20024;-67
2020/12/13 00:57:08;;;;;;;6.45;5.95;;;;;;;2.86;100.00;95025.28;1052593;28;20365;-67
2020/12/13 00:57:38;;;;;;;6.88;6.28;;;;;;;2.84;100.00;95020.28;1048487;28;20032;-67
2020/12/13 00:58:08;;;;;;;5.90;5.40;;;;;;;2.88;100.00;95026.66;1048455;28;20025;-67
2020/12/13 00:58:39;;;;;;;6.03;5.45;;;;;;;2.88;100.00;95029.25;1048478;28;20481;-67
2020/12/13 00:59:09;;;;;;;6.20;5.55;;;;;;;2.89;100.00;95027.44;1052583;28;20027;-67
2020/12/13 00:59:40;;;;;;;5.78;5.28;;;;;;;2.88;100.00;95031.88;1052876;28;20020;-67
2020/12/13 01:00:10;;;;;;;6.32;5.82;;;;;;;2.88;100.00;95026.66;1051265;28;20028;-67
2020/12/13 01:00:41;;;;;;;6.47;5.88;;;;;;;2.87;100.00;95027.69;1047458;28;20032;-67
2020/12/13 01:01:11;;;;;;;6.82;6.22;;;;;;;2.82;100.00;95030.16;1047725;28;20024;-67
2020/12/13 01:01:41;;;;;;;6.53;5.90;;;;;;;2.83;100.00;95031.75;1044580;28;20035;-67
2020/12/13 01:02:12;;;;;;;5.78;5.28;;;;;;;2.86;100.00;95033.13;1048532;28;20451;-67
2020/12/13 01:02:42;;;;;;;6.68;6.07;;;;;;;2.87;100.00;95027.69;1049060;28;20453;-67
2020/12/13 01:03:13;;;;;;;6.47;5.88;;;;;;;2.87;100.00;95027.69;1049104;28;20021;-67
2020/12/13 01:03:43;;;;;;;6.32;5.72;;;;;;;2.86;100.00;95028.69;1053178;28;20017;-67
2020/12/13 01:04:14;;;;;;;6.13;5.57;;;;;;;2.89;100.00;95033.47;1053010;28;20063;-67
2020/12/13 01:04:46;;;;;;;5.93;5.43;;;;;;;2.89;100.00;95033.47;1053208;28;20069;-67
2020/12/13 01:05:17;;;;;;;6.65;5.93;;;;;;;2.89;100.00;95033.47;1052690;28;20465;-67
2020/12/13 01:05:47;;;;;;;6.65;6.05;;;;;;;2.92;100.00;95035.63;1049094;28;20029;-67
2020/12/13 01:06:24;;;;;;;6.18;5.57;;;;;;;2.90;100.00;95029.84;1048985;28;20029;-67
2020/12/13 01:06:54;;;;;;;6.30;5.70;;;;;;;2.93;100.00;95034.59;1044639;28;20029;-67
2020/12/13 01:07:25;;;;;;;6.22;5.63;;;;;;;2.93;100.00;95034.59;1041981;28;20021;-67
2020/12/13 01:07:55;;;;;;;6.60;6.00;;;;;;;2.93;100.00;95037.22;1044541;28;20036;-67
2020/12/13 01:08:25;;;;;;;6.65;6.05;;;;;;;2.90;100.00;95032.44;1044755;28;20028;-67
2020/12/13 01:08:56;;;;;;;6.90;6.10;;;;;;;2.94;100.00;95041.44;1048735;28;20020;-67
2020/12/13 01:09:26;;;;;;;7.07;6.47;;;;;;;2.96;100.00;95037.78;1051002;28;20024;-67
2020/12/13 01:09:57;;;;;;;6.30;5.80;;;;;;;2.97;100.00;95039.41;1048723;28;20021;-67
2020/12/13 01:10:27;;;;;;;6.18;5.55;;;;;;;2.99;100.00;95043.38;1048641;28;20378;-67
2020/12/13 01:10:58;;;;;;;6.03;5.53;;;;;;;2.99;100.00;95045.22;1048982;28;20532;-67
2020/12/13 01:11:29;;;;;;;6.57;6.03;;;;;;;2.96;100.00;95048.25;1051007;28;20017;-67
2020/12/13 01:12:00;;;;;;;6.57;6.00;;;;;;;2.98;100.00;95047.03;1053232;28;20415;-67
2020/12/13 01:12:31;;;;;;;6.22;5.63;;;;;;;2.93;100.00;95037.22;1053170;28;20028;-67
2020/12/13 01:13:01;;;;;;;7.03;6.43;;;;;;;2.97;100.00;95047.25;1052827;28;20110;-67
2020/12/13 01:13:31;;;;;;;7.30;6.70;;;;;;;2.90;100.00;95048.16;1050196;28;20023;-67
2020/12/13 01:14:02;;;;;;;6.97;6.38;;;;;;;2.87;100.00;95058.28;1048675;28;20024;-67
2020/12/13 01:14:33;;;;;;;7.85;6.68;;;;;;;2.84;100.00;95051.69;1044477;28;20028;-67
2020/12/13 01:15:06;;;;;;;7.68;6.97;;;;;;;2.81;100.00;95046.88;1048639;28;20045;-67
2020/12/13 01:15:36;;;;;;;6.75;6.03;;;;;;;2.89;100.00;95048.38;1051795;28;20015;-67
2020/12/13 01:16:07;;;;;;;6.40;5.55;;;;;;;2.89;100.00;95049.19;1052665;28;20050;-67
2020/12/13 01:16:37;;;;;;;6.47;5.88;;;;;;;2.90;100.00;95056.00;1052858;28;20361;-67
2020/12/13 01:17:08;;;;;;;6.72;6.13;;;;;;;2.94;100.00;95051.09;1052894;28;20031;-68
2020/12/13 01:17:38;;;;;;;7.18;6.55;;;;;;;2.90;100.00;95040.31;1048526;28;20019;-67
2020/12/13 01:18:09;;;;;;;7.18;6.57;;;;;;;2.94;100.00;95058.97;1048736;28;20029;-67
2020/12/13 01:18:39;;;;;;;7.10;6.50;;;;;;;2.92;100.00;95048.72;1052854;28;20016;-67
2020/12/13 01:19:09;;;;;;;7.45;6.78;;;;;;;2.91;100.00;95054.97;1048647;28;20374;-67
2020/12/13 01:19:46;;;;;;;8.40;7.60;;;;;;;2.92;100.00;95059.19;1048934;28;20366;-67
2020/12/13 01:20:17;;;;;;;7.32;6.63;;;;;;;2.94;100.00;95053.72;1050454;28;20043;-67
2020/12/13 01:20:47;;;;;;;7.60;6.90;;;;;;;2.95;100.00;95047.47;1050491;28;20079;-68
2020/12/13 01:21:19;;;;;;;6.95;6.35;;;;;;;2.94;100.00;95051.91;1052694;28;20062;-68
2020/12/13 01:21:49;;;;;;;7.85;7.05;;;;;;;2.92;100.00;95055.78;1053052;28;20051;-67
2020/12/13 01:22:23;;;;;;;6.43;5.82;;;;;;;2.99;100.00;95060.91;1053031;28;20427;-67
2020/12/13 01:22:53;;;;;;;7.13;6.53;;;;;;;2.98;100.00;95064.56;1053038;28;20388;-67
2020/12/13 01:23:23;;;;;;;6.63;6.03;;;;;;;2.98;100.00;95062.75;1053129;28;20019;-67
2020/12/13 01:23:54;;;;;;;7.90;7.10;;;;;;;2.99;100.00;95063.53;1052276;28;20020;-67
2020/12/13 01:24:25;;;;;;;7.25;6.65;;;;;;;2.99;100.00;95068.78;1050126;28;20147;-67
2020/12/13 01:24:55;;;;;;;6.78;6.18;;;;;;;2.99;100.00;95059.09;1051399;28;20017;-67
2020/12/13 01:25:25;;;;;;;7.00;6.40;;;;;;;2.99;100.00;95061.72;1051398;28;20024;-67
2020/12/13 01:25:56;;;;;;;7.07;6.47;;;;;;;3.00;100.00;95070.34;1048916;28;20012;-67
2020/12/13 01:26:27;;;;;;;7.65;6.95;;;;;;;2.99;100.00;95060.91;1048899;28;20020;-67
2020/12/13 01:26:57;;;;;;;7.72;7.03;;;;;;;2.99;100.00;95059.09;1050633;28;20020;-67
2020/12/13 01:27:28;;;;;;;7.75;7.05;;;;;;;3.00;100.00;95062.50;1052914;28;20024;-67
2020/12/13 01:27:58;;;;;;;7.18;6.57;;;;;;;3.01;100.00;95071.94;1052998;28;20012;-67
2020/12/13 01:28:29;;;;;;;7.47;6.78;;;;;;;2.99;100.00;95068.78;1053004;28;20372;-67
2020/12/13 01:28:59;;;;;;;7.53;6.78;;;;;;;2.99;100.00;95068.78;1052893;28;20361;-69
2020/12/13 01:29:30;;;;;;;8.20;7.43;;;;;;;2.99;100.00;95068.78;1052569;28;20031;-68
2020/12/13 01:30:00;;;;;;;7.88;7.18;;;;;;;2.97;100.00;95066.38;1052358;28;20515;-69
2020/12/13 01:30:30;;;;;;;7.32;6.68;;;;;;;2.98;100.00;95067.19;1044382;28;20436;-68
2020/12/13 01:31:01;;;;;;;7.68;6.97;;;;;;;2.95;100.00;95073.63;1044275;28;20020;-68
2020/12/13 01:31:31;;;;;;;8.20;7.40;;;;;;;2.96;100.00;95070.03;1047015;28;20016;-68
2020/12/13 01:32:02;;;;;;;7.78;7.07;;;;;;;2.97;100.00;95070.81;1048311;28;20381;-69
2020/12/13 01:32:42;;;;;;;8.45;7.65;;;;;;;2.94;100.00;95067.59;1053147;28;20065;-69
2020/12/13 01:33:12;;;;;;;7.05;6.45;;;;;;;2.97;100.00;95070.81;1052810;28;20020;-69
2020/12/13 01:33:43;;;;;;;9.35;8.32;;;;;;;2.90;100.00;95071.72;1050331;28;20017;-69
2020/12/13 01:34:14;;;;;;;8.45;7.65;;;;;;;2.90;100.00;95071.72;1053004;28;20019;-69
2020/12/13 01:34:44;;;;;;;7.95;7.05;;;;;;;2.95;100.00;95078.88;1052782;28;20012;-68
2020/12/13 01:35:14;;;;;;;8.85;7.95;;;;;;;2.96;100.00;95070.03;1052883;28;20461;-68
2020/12/13 01:35:45;;;;;;;8.57;7.78;;;;;;;2.98;100.00;95075.03;1052970;28;20024;-69
2020/12/13 01:36:17;;;;;;;9.00;8.20;;;;;;;2.91;100.00;95073.31;1052844;28;20024;-69
2020/12/13 01:36:47;;;;;;;8.45;7.70;;;;;;;2.89;100.00;95075.34;1052662;28;20548;-69
2020/12/13 01:37:18;;;;;;;9.25;8.02;;;;;;;2.91;100.00;95073.31;1048445;28;20033;-69
2020/12/13 01:37:48;;;;;;;9.02;8.18;;;;;;;2.91;100.00;95068.06;1048250;28;20029;-69
2020/12/13 01:38:19;;;;;;;9.00;8.20;;;;;;;2.88;100.00;95076.38;1047266;28;20032;-68
2020/12/13 01:38:49;;;;;;;8.38;7.57;;;;;;;2.89;100.00;95075.34;1045788;28;20032;-69
2020/12/13 01:39:20;;;;;;;8.82;7.93;;;;;;;2.92;100.00;95081.94;1049280;28;20036;-69
2020/12/13 01:39:50;;;;;;;8.05;7.13;;;;;;;2.95;100.00;95073.63;1048754;28;20023;-69
2020/12/13 01:40:20;;;;;;;9.00;8.15;;;;;;;2.96;100.00;95075.25;1048760;28;20024;-69
2020/12/13 01:40:59;;;;;;;8.93;8.07;;;;;;;2.92;100.00;95079.31;1048937;28;20611;-69
2020/12/13 01:41:30;;;;;;;7.68;6.97;;;;;;;2.97;100.00;95076.06;1052732;28;20024;-68
2020/12/13 01:42:00;;;;;;;8.45;7.40;;;;;;;2.97;100.00;95081.28;1053170;28;20469;-68
2020/12/13 01:42:41;;;;;;;9.55;8.68;;;;;;;2.90;100.00;95082.19;1053115;28;20024;-68
2020/12/13 01:43:11;;;;;;;9.65;8.60;;;;;;;2.87;100.00;95082.63;1051653;28;20016;-68
2020/12/13 01:43:57;;;;;;;8.20;7.50;;;;;;;2.94;100.00;95080.69;1048815;28;20029;-68
2020/12/13 01:44:33;;;;;;;8.18;7.40;;;;;;;2.97;100.00;95081.28;1048588;28;20103;-68
2020/12/13 01:45:05;;;;;;;7.93;7.20;;;;;;;2.98;100.00;95080.25;1052040;28;20023;-68
2020/12/13 01:45:35;;;;;;;9.23;8.30;;;;;;;3.02;100.00;95084.00;1052672;28;20024;-69
2020/12/13 01:46:06;;;;;;;8.32;7.57;;;;;;;3.02;100.00;95084.00;1052826;28;20024;-68
2020/12/13 01:46:37;;;;;;;8.45;7.55;;;;;;;3.03;100.00;95086.41;1053041;28;20028;-68
2020/12/13 01:47:07;;;;;;;8.40;7.55;;;;;;;3.04;100.00;95084.56;1051975;28;20027;-68
2020/12/13 01:47:38;;;;;;;12.20;8.70;;;;;;;3.02;100.00;95084.00;1048515;28;20338;-70
2020/12/13 01:48:08;;;;;;;9.50;8.52;;;;;;;3.02;100.00;95086.63;1048503;28;20020;-68
2020/12/13 01:48:38;;;;;;;10.32;9.32;;;;;;;3.02;100.00;95089.25;1048355;28;20024;-68
2020/12/13 01:49:10;;;;;;;8.57;7.63;;;;;;;2.98;100.00;95086.28;1049851;28;20029;-68
2020/12/13 01:49:43;;;;;;;8.23;7.53;;;;;;;3.01;100.00;95087.66;1052651;28;20381;-70
2020/12/13 01:50:29;;;;;;;8.88;8.07;;;;;;;3.01;100.00;95083.22;1048535;28;20027;-68
2020/12/13 01:52:06;;;;;;;9.57;8.57;;;;;;;3.00;100.00;95091.28;1048925;28;20070;-68
2020/12/13 01:52:49;;;;;;;8.43;7.63;;;;;;;3.03;100.00;95090.84;1052807;28;20027;-69
2020/12/13 01:53:24;;;;;;;8.95;8.02;;;;;;;3.01;100.00;95087.66;1052774;28;20039;-68
2020/12/13 01:53:54;;;;;;;9.45;8.13;;;;;;;3.01;100.00;95092.88;1048429;28;20394;-69
2020/12/13 01:54:25;;;;;;;8.77;7.97;;;;;;;3.01;100.00;95092.88;1044284;28;20059;-68
2020/12/13 01:55:01;;;;;;;9.60;8.57;;;;;;;3.01;100.00;95082.41;1044397;28;20040;-68
2020/12/13 01:55:31;;;;;;;8.82;8.02;;;;;;;3.02;100.00;95089.25;1044381;28;20025;-68
2020/12/13 01:56:02;;;;;;;8.90;8.10;;;;;;;3.02;100.00;95091.88;1044451;28;20037;-68
2020/12/13 01:56:33;;;;;;;10.00;9.10;;;;;;;3.02;100.00;95094.47;1044246;28;20013;-69
2020/12/13 01:57:03;;;;;;;9.75;8.85;;;;;;;3.01;100.00;95090.28;1040659;28;20427;-68
2020/12/13 01:57:35;;;;;;;10.18;9.15;;;;;;;2.98;100.00;95091.53;1040322;28;20021;-69
2020/12/13 01:58:05;;;;;;;10.02;9.13;;;;;;;2.92;100.00;95090.59;1040265;28;20506;-69
2020/12/13 01:58:38;;;;;;;10.90;9.80;;;;;;;2.93;100.00;95097.41;1036346;28;20022;-68
2020/12/13 01:59:09;;;;;;;10.23;9.25;;;;;;;2.91;100.00;95088.22;1041440;28;20030;-68
2020/12/13 01:59:39;;;;;;;9.20;8.30;;;;;;;2.97;100.00;95089.13;1040212;28;20033;-69
2020/12/13 02:00:11;;;;;;;8.90;8.07;;;;;;;2.98;100.00;95088.13;1040517;28;20029;-69
2020/12/13 02:00:46;;;;;;;8.77;7.97;;;;;;;2.95;100.00;95091.97;1044443;28;20040;-68
2020/12/13 02:01:16;;;;;;;9.38;8.32;;;;;;;2.99;100.00;95094.94;1046125;28;20070;-69
2020/12/13 02:02:05;;;;;;;8.95;8.13;;;;;;;2.99;100.00;95092.31;1049435;28;20066;-68
2020/12/13 02:02:47;;;;;;;9.05;8.13;;;;;;;2.98;100.00;95082.88;1048527;28;20021;-69
2020/12/13 02:03:22;;;;;;;9.43;8.52;;;;;;;2.93;100.00;95086.94;1048572;28;20103;-69
2020/12/13 02:03:54;;;;;;;9.38;8.48;;;;;;;2.98;100.00;95091.53;1044391;28;20016;-69
2020/12/13 02:04:24;;;;;;;9.70;8.80;;;;;;;2.99;100.00;95094.94;1042584;28;20378;-69
2020/12/13 02:04:55;;;;;;;9.60;8.75;;;;;;;2.98;100.00;95094.16;1044299;28;20024;-69
2020/12/13 02:05:25;;;;;;;9.35;8.45;;;;;;;2.98;100.00;95093.34;1044531;28;20551;-69
2020/12/13 02:06:06;;;;;;;8.85;8.05;;;;;;;3.00;100.00;95099.16;1044450;28;20055;-70
2020/12/13 02:06:36;;;;;;;9.40;8.50;;;;;;;2.96;100.00;95095.38;1048399;28;20389;-69
2020/12/13 02:07:06;;;;;;;10.23;9.13;;;;;;;2.95;100.00;95094.56;1040324;28;20025;-70
2020/12/13 02:07:37;;;;;;;9.00;8.20;;;;;;;2.95;100.00;95091.97;1041759;28;20022;-69
2020/12/13 02:08:07;;;;;;;9.25;8.45;;;;;;;2.98;100.00;95093.34;1044491;28;20025;-69
2020/12/13 02:08:41;;;;;;;9.00;8.10;;;;;;;2.99;100.00;95100.19;1040222;28;20063;-68
2020/12/13 02:09:12;;;;;;;8.80;8.07;;;;;;;3.03;100.00;95101.31;1044922;28;20025;-69
2020/12/13 02:09:42;;;;;;;9.48;8.50;;;;;;;3.04;100.00;95097.66;1048556;28;20545;-68
2020/12/13 02:10:13;;;;;;;8.30;7.60;;;;;;;3.04;100.00;95098.47;1052587;28;20083;-68
2020/12/13 02:10:43;;;;;;;9.35;8.50;;;;;;;3.03;100.00;95096.06;1052946;28;20035;-68
2020/12/13 02:11:14;;;;;;;9.48;8.55;;;;;;;2.99;100.00;95094.94;1053050;28;20028;-68
2020/12/13 02:11:44;;;;;;;9.25;8.38;;;;;;;2.96;100.00;95098.81;1052978;28;20020;-68
2020/12/13 02:12:14;;;;;;;9.82;8.93;;;;;;;2.97;100.00;95103.03;1052982;28;20089;-68
2020/12/13 02:12:45;;;;;;;10.35;9.35;;;;;;;2.97;100.00;95094.38;1052932;28;20063;-68
2020/12/13 02:13:15;;;;;;;8.70;7.90;;;;;;;3.02;100.00;95099.72;1052877;28;20036;-69
2020/12/13 02:13:48;;;;;;;8.93;8.13;;;;;;;3.02;100.00;95100.50;1052903;28;20016;-68
2020/12/13 02:14:18;;;;;;;9.10;8.15;;;;;;;3.01;100.00;95101.53;1052955;28;20024;-68
2020/12/13 02:14:49;;;;;;;8.50;7.57;;;;;;;3.03;100.00;95107.34;1052852;28;20357;-70
2020/12/13 02:15:20;;;;;;;9.57;8.68;;;;;;;3.02;100.00;95104.94;1052880;28;20031;-69
2020/12/13 02:15:50;;;;;;;8.60;7.80;;;;;;;3.02;100.00;95100.50;1051086;28;20399;-69
2020/12/13 02:16:21;;;;;;;9.27;8.45;;;;;;;2.96;100.00;95103.22;1040103;28;20498;-69
2020/12/13 02:16:52;;;;;;;8.40;7.68;;;;;;;2.99;100.00;95100.97;1040109;28;20551;-69
2020/12/13 02:17:22;;;;;;;8.90;8.00;;;;;;;2.98;100.00;95104.63;1036302;28;20076;-68
2020/12/13 02:17:54;;;;;;;9.88;8.55;;;;;;;2.97;100.00;95102.22;1040540;28;20025;-68
2020/12/13 02:18:27;;;;;;;9.85;8.95;;;;;;;3.00;100.00;95101.78;1048507;28;20024;-69
2020/12/13 02:18:57;;;;;;;9.40;8.10;;;;;;;3.02;100.00;95104.94;1048541;28;20382;-69
2020/12/13 02:19:28;;;;;;;8.20;7.45;;;;;;;3.03;100.00;95103.94;1048852;28;20027;-68
2020/12/13 02:19:58;;;;;;;8.57;7.78;;;;;;;3.03;100.00;95109.16;1048686;28;20027;-69
2020/12/13 02:20:29;;;;;;;8.13;7.40;;;;;;;3.02;100.00;95102.34;1048813;28;20020;-68
2020/12/13 02:21:01;;;;;;;7.82;7.13;;;;;;;3.02;100.00;95102.34;1050498;28;20020;-68
2020/12/13 02:21:31;;;;;;;9.25;7.60;;;;;;;3.05;100.00;95099.25;1053032;28;20023;-69
2020/12/13 02:22:02;;;;;;;9.23;8.32;;;;;;;3.04;100.00;95106.31;1048316;28;20025;-69
2020/12/13 02:22:32;;;;;;;8.38;7.65;;;;;;;3.05;100.00;95109.72;1044329;28;20025;-69
2020/12/13 02:23:06;;;;;;;9.30;8.40;;;;;;;3.01;100.00;95108.59;1044221;28;20029;-70
2020/12/13 02:23:38;;;;;;;8.60;7.70;;;;;;;3.02;100.00;95110.97;1045461;28;20091;-69
2020/12/13 02:24:10;;;;;;;8.68;7.88;;;;;;;2.96;100.00;95111.91;1052653;28;20519;-69
2020/12/13 02:24:40;;;;;;;9.80;8.82;;;;;;;2.94;100.00;95109.47;1052708;28;20376;-69
2020/12/13 02:25:22;;;;;;;9.15;8.23;;;;;;;3.01;100.00;95108.59;1052448;28;20043;-70
2020/12/13 02:25:52;;;;;;;8.52;7.80;;;;;;;2.98;100.00;95102.00;1052535;28;20423;-70
2020/12/13 02:26:22;;;;;;;10.35;8.50;;;;;;;2.99;100.00;95105.41;1049965;28;20028;-68
2020/12/13 02:26:53;;;;;;;9.20;8.30;;;;;;;2.96;100.00;95106.66;1052591;28;20016;-69
2020/12/13 02:27:23;;;;;;;8.52;7.82;;;;;;;2.99;100.00;95102.78;1052631;28;20028;-69
2020/12/13 02:27:53;;;;;;;9.20;8.30;;;;;;;3.00;100.00;95109.63;1052694;28;20028;-69
2020/12/13 02:28:24;;;;;;;8.60;7.82;;;;;;;3.01;100.00;95111.22;1053019;28;20024;-69